Time;durP1;ratioP1;P1;durP2;ratioP2;P2;SDS_P1;SDS_P2;PMS_P1;PMS_P2;Temp;Humidity;BMP_temperature;BMP_pressure;BME280_temperature;BME280_humidity;BME280_pressure;Samples;Min_cycle;Max_cycle;Signal;HPM_P1;HPM_P2
2022/05/04 00:01:54;;;;;;;0.30;0.20;;;;;;;13.62;83.41;100197.81;4951213;28;20455;-52
2022/05/04 00:04:21;;;;;;;0.30;0.20;;;;;;;13.44;84.13;100198.59;4939971;28;20530;-52
2022/05/04 00:06:48;;;;;;;0.77;0.77;;;;;;;13.19;84.81;100191.59;4950901;28;20974;-52
2022/05/04 00:09:15;;;;;;;0.30;0.20;;;;;;;13.47;83.98;100193.13;4951325;29;20533;-52
2022/05/04 00:11:42;;;;;;;0.30;0.20;;;;;;;13.18;84.82;100181.88;4951166;28;20830;-52
2022/05/04 00:14:09;;;;;;;0.73;0.73;;;;;;;13.22;85.58;100191.47;4951135;28;21008;-52
2022/05/04 00:16:35;;;;;;;1.13;0.50;;;;;;;13.07;86.04;100192.06;4925654;29;20455;-52
2022/05/04 00:19:02;;;;;;;0.30;0.20;;;;;;;13.06;85.94;100198.34;4951135;28;21021;-53
2022/05/04 00:21:29;;;;;;;0.30;0.20;;;;;;;12.97;85.65;100191.56;4938726;29;20517;-53
2022/05/04 00:23:55;;;;;;;0.40;0.30;;;;;;;12.86;86.13;100198.25;4943879;28;20519;-52
2022/05/04 00:26:22;;;;;;;0.30;0.20;;;;;;;13.00;86.03;100204.78;4951071;28;21006;-52
2022/05/04 00:28:48;;;;;;;0.30;0.20;;;;;;;13.00;85.89;100198.56;4950962;29;20478;-52
2022/05/04 00:31:15;;;;;;;0.40;0.30;;;;;;;12.81;86.64;100194.91;4944470;28;20514;-52
2022/05/04 00:33:42;;;;;;;0.60;0.60;;;;;;;12.63;87.57;100188.50;4945059;28;20544;-52
2022/05/04 00:36:08;;;;;;;0.30;0.20;;;;;;;12.44;88.48;100186.50;4950901;29;20531;-52
2022/05/04 00:38:35;;;;;;;0.40;0.30;;;;;;;12.35;89.17;100186.00;4950981;29;20956;-51
2022/05/04 00:41:02;;;;;;;0.30;0.20;;;;;;;12.39;88.26;100179.63;4948969;28;20513;-52
2022/05/04 00:43:29;;;;;;;0.30;0.20;;;;;;;12.29;88.78;100188.88;4945510;29;20529;-52
2022/05/04 00:45:56;;;;;;;0.50;0.50;;;;;;;12.32;88.65;100192.28;4950797;28;20520;-51
2022/05/04 00:48:22;;;;;;;0.40;0.30;;;;;;;12.51;88.40;100183.63;4950992;28;20833;-51
2022/05/04 00:50:50;;;;;;;0.30;0.20;;;;;;;12.46;89.02;100187.31;4951035;28;20456;-51
2022/05/04 00:53:19;;;;;;;0.30;0.20;;;;;;;12.20;89.62;100197.22;4949697;28;21069;-51
2022/05/04 00:55:47;;;;;;;0.30;0.20;;;;;;;11.98;89.40;100192.69;4950575;28;20484;-51
2022/05/04 01:01:02;;;;;;;0.30;0.20;;;;;;;11.81;90.79;100187.97;4950862;29;20447;-52
2022/05/04 01:03:28;;;;;;;0.30;0.20;;;;;;;11.85;90.00;100180.72;4950862;29;20461;-52
2022/05/04 01:05:55;;;;;;;0.47;0.47;;;;;;;11.97;89.36;100185.63;4951534;28;20578;-52
2022/05/04 01:08:22;;;;;;;1.90;1.20;;;;;;;11.88;88.95;100177.06;4968784;28;20451;-51
2022/05/04 01:10:49;;;;;;;0.40;0.40;;;;;;;11.88;88.97;100183.28;4954074;28;20451;-52
2022/05/04 01:13:18;;;;;;;0.30;0.20;;;;;;;11.68;89.63;100186.63;4953825;28;20552;-51
2022/05/04 01:15:45;;;;;;;7.73;1.07;;;;;;;11.52;91.26;100180.09;4954104;28;20532;-52
2022/05/04 01:18:11;;;;;;;0.60;0.60;;;;;;;11.47;91.23;100190.00;4953820;28;20577;-52
2022/05/04 01:20:38;;;;;;;0.90;0.87;;;;;;;11.44;91.86;100184.78;4953694;28;20966;-51
2022/05/04 01:23:05;;;;;;;0.30;0.20;;;;;;;11.56;90.80;100193.22;4953044;28;20522;-52
2022/05/04 01:25:31;;;;;;;0.30;0.20;;;;;;;11.49;91.17;100193.47;4947095;29;20479;-52
2022/05/04 01:27:58;;;;;;;0.30;0.20;;;;;;;11.42;91.21;100194.63;4941150;28;20540;-51
2022/05/04 01:30:24;;;;;;;0.30;0.20;;;;;;;11.39;91.51;100192.06;4953716;28;21043;-52
2022/05/04 01:32:51;;;;;;;0.30;0.20;;;;;;;11.24;91.74;100188.13;4953704;28;20491;-52
2022/05/04 01:35:18;;;;;;;0.30;0.20;;;;;;;11.27;91.21;100196.88;4953489;28;20471;-52
2022/05/04 01:37:44;;;;;;;0.73;0.60;;;;;;;11.17;91.83;100190.09;4953693;28;20455;-52
2022/05/04 01:40:11;;;;;;;0.50;0.50;;;;;;;11.19;92.25;100193.56;4953701;28;20452;-52
2022/05/04 01:42:38;;;;;;;0.60;0.60;;;;;;;11.13;91.82;100193.78;4946135;28;20463;-52
2022/05/04 01:45:05;;;;;;;0.73;0.73;;;;;;;10.99;92.36;100196.03;4953184;28;20511;-52
2022/05/04 01:47:32;;;;;;;0.30;0.20;;;;;;;11.09;93.77;100201.91;4953405;28;20489;-52
2022/05/04 01:49:59;;;;;;;0.30;0.20;;;;;;;10.93;94.44;100205.03;4953377;29;21025;-52
2022/05/04 01:52:25;;;;;;;0.60;0.60;;;;;;;10.79;95.00;100204.59;4945665;28;20457;-52
2022/05/04 01:54:52;;;;;;;0.30;0.20;;;;;;;10.67;96.04;100202.31;4949416;28;20544;-54
2022/05/04 01:57:22;;;;;;;0.47;0.47;;;;;;;10.79;95.49;100195.75;4953296;28;20455;-53
2022/05/04 01:59:48;;;;;;;0.40;0.30;;;;;;;10.78;95.36;100202.00;4952992;28;20459;-54
2022/05/04 02:02:15;;;;;;;0.30;0.20;;;;;;;10.99;94.67;100198.69;4953338;28;20526;-53
2022/05/04 02:04:42;;;;;;;0.30;0.20;;;;;;;11.18;93.96;100202.47;4953113;28;20984;-53
2022/05/04 02:07:09;;;;;;;0.30;0.20;;;;;;;11.03;94.43;100207.44;4948192;28;20484;-54
2022/05/04 02:09:37;;;;;;;0.30;0.20;;;;;;;10.96;94.88;100202.31;4931588;29;20975;-53
2022/05/04 02:12:04;;;;;;;0.30;0.30;;;;;;;11.00;95.37;100208.41;4953139;28;21104;-54
2022/05/04 02:14:32;;;;;;;5.70;1.03;;;;;;;11.11;95.24;100208.06;4952936;28;20495;-54
2022/05/04 02:16:59;;;;;;;0.30;0.20;;;;;;;10.98;95.06;100205.78;4953058;28;20536;-54
2022/05/04 02:19:26;;;;;;;0.30;0.20;;;;;;;11.06;95.39;100207.31;4952306;28;20499;-54
2022/05/04 02:21:53;;;;;;;0.53;0.40;;;;;;;11.02;95.71;100201.25;4952824;28;20459;-54
2022/05/04 02:24:20;;;;;;;0.40;0.30;;;;;;;10.95;96.02;100205.88;4944809;29;20467;-54
2022/05/04 02:26:47;;;;;;;0.30;0.20;;;;;;;11.11;95.78;100205.41;4953184;28;20486;-54
2022/05/04 02:29:13;;;;;;;0.30;0.20;;;;;;;11.18;95.61;100207.81;4952830;28;20455;-54
2022/05/04 02:31:40;;;;;;;0.30;0.20;;;;;;;11.13;95.81;100207.09;4952818;28;20552;-54
2022/05/04 02:34:07;;;;;;;0.30;0.20;;;;;;;10.87;97.16;100202.59;4952511;28;21058;-54
2022/05/04 02:39:18;;;;;;;0.40;0.30;;;;;;;11.16;96.35;100206.13;4928243;28;20498;-54
2022/05/04 02:41:45;;;;;;;0.30;0.20;;;;;;;11.15;96.57;100210.56;4945551;28;20519;-54
2022/05/04 02:44:12;;;;;;;0.30;0.20;;;;;;;10.97;96.61;100205.84;4952631;28;20521;-54
2022/05/04 02:46:38;;;;;;;0.30;0.20;;;;;;;10.84;97.14;100210.66;4952350;28;20451;-54
2022/05/04 02:49:05;;;;;;;0.30;0.20;;;;;;;10.98;97.00;100215.56;4952531;28;20455;-54
2022/05/04 02:51:31;;;;;;;0.30;0.20;;;;;;;10.91;97.48;100214.00;4952489;29;20460;-54
2022/05/04 02:53:58;;;;;;;0.60;0.60;;;;;;;10.97;96.79;100213.81;4952292;28;20503;-54
2022/05/04 02:56:26;;;;;;;0.30;0.20;;;;;;;11.08;96.70;100210.78;4952401;29;20463;-54
2022/05/04 02:58:53;;;;;;;0.30;0.20;;;;;;;10.98;97.21;100212.91;4952476;28;20478;-54
2022/05/04 03:04:06;;;;;;;0.30;0.20;;;;;;;10.91;97.88;100217.53;4952606;28;20894;-54
2022/05/04 03:06:34;;;;;;;0.40;0.30;;;;;;;10.96;97.86;100207.63;4952292;28;20459;-54
2022/05/04 03:09:02;;;;;;;0.30;0.20;;;;;;;11.07;97.46;100209.06;4952348;29;20509;-54
2022/05/04 03:14:13;;;;;;;0.40;0.40;;;;;;;10.91;98.46;100214.88;4952189;29;20616;-54
2022/05/04 03:16:40;;;;;;;2.00;0.70;;;;;;;10.82;98.94;100209.81;4951950;28;20459;-54
2022/05/04 03:19:07;;;;;;;0.40;0.33;;;;;;;11.19;97.28;100216.66;4951980;28;20828;-54
2022/05/04 03:21:34;;;;;;;0.30;0.20;;;;;;;11.06;97.84;100215.31;4952120;28;20505;-54
2022/05/04 03:24:01;;;;;;;0.30;0.20;;;;;;;11.18;97.69;100210.47;4945873;28;20473;-54
2022/05/04 03:26:28;;;;;;;0.30;0.20;;;;;;;11.24;97.33;100218.25;4951888;28;20544;-54
2022/05/04 03:28:55;;;;;;;1.60;0.83;;;;;;;11.27;97.38;100206.66;4951601;28;20478;-54
2022/05/04 03:31:22;;;;;;;0.30;0.20;;;;;;;11.15;97.63;100220.34;4951473;28;20509;-54
2022/05/04 03:33:50;;;;;;;2.30;1.27;;;;;;;10.99;98.33;100219.97;4951560;28;20495;-53
2022/05/04 03:36:16;;;;;;;1.13;1.03;;;;;;;10.92;98.44;100218.41;4951991;28;20505;-54
2022/05/04 03:38:44;;;;;;;0.30;0.20;;;;;;;10.84;99.95;100217.78;4951711;28;20462;-54
2022/05/04 03:41:11;;;;;;;0.70;0.50;;;;;;;10.90;99.61;100209.59;4948600;28;20538;-54
2022/05/04 03:43:38;;;;;;;0.30;0.20;;;;;;;10.75;100.00;100212.72;4947686;29;20448;-54
2022/05/04 03:46:46;;;;;;;0.40;0.40;;;;;;;10.74;100.00;100211.00;4951908;28;20850;-54
2022/05/04 03:49:16;;;;;;;0.30;0.20;;;;;;;10.89;100.00;100210.53;4924117;29;20948;-53
2022/05/04 03:51:43;;;;;;;0.30;0.20;;;;;;;10.96;100.00;100212.06;4951572;28;20463;-54
2022/05/04 03:54:10;;;;;;;0.50;0.47;;;;;;;11.20;99.16;100213.06;4950919;28;20557;-53
2022/05/04 03:56:38;;;;;;;0.50;0.50;;;;;;;11.21;98.72;100201.50;4951396;28;20954;-54
2022/05/04 03:59:06;;;;;;;0.50;0.50;;;;;;;11.23;99.02;100220.94;4951627;28;21002;-53
2022/05/04 04:01:33;;;;;;;0.90;0.87;;;;;;;11.32;98.52;100210.00;4951545;28;20483;-53
2022/05/04 04:03:59;;;;;;;0.30;0.20;;;;;;;11.24;99.34;100220.06;4951366;28;20475;-54
2022/05/04 04:06:26;;;;;;;9.03;1.77;;;;;;;11.22;99.64;100217.41;4951503;28;20889;-54
2022/05/04 04:08:53;;;;;;;0.60;0.60;;;;;;;11.25;100.00;100221.78;4966208;28;20482;-53
2022/05/04 04:11:19;;;;;;;0.30;0.20;;;;;;;11.36;99.73;100222.28;4951251;28;20451;-54
2022/05/04 04:13:46;;;;;;;0.30;0.20;;;;;;;11.52;98.54;100217.34;4951180;28;21019;-54
2022/05/04 04:16:13;;;;;;;0.30;0.20;;;;;;;11.43;99.15;100218.50;4951128;28;20498;-54
2022/05/04 04:18:40;;;;;;;0.40;0.30;;;;;;;11.68;97.90;100223.03;4951092;28;20459;-53
2022/05/04 04:23:52;;;;;;;0.43;0.43;;;;;;;11.64;98.27;100224.03;4944191;29;20448;-53
2022/05/04 04:26:18;;;;;;;0.50;0.50;;;;;;;11.67;98.44;100227.47;4950599;29;20944;-53
2022/05/04 04:28:45;;;;;;;0.43;0.43;;;;;;;11.68;98.93;100234.53;4951114;28;20509;-53
2022/05/04 04:31:12;;;;;;;0.30;0.20;;;;;;;11.49;99.50;100233.41;4951116;28;21014;-53
2022/05/04 04:33:39;;;;;;;18.17;1.60;;;;;;;12.24;94.63;100234.38;4950586;28;20541;-54
2022/05/04 04:36:06;;;;;;;0.30;0.20;;;;;;;11.95;96.96;100231.88;4951295;28;20947;-53
2022/05/04 04:38:32;;;;;;;0.30;0.20;;;;;;;11.97;97.88;100230.03;4951247;28;20490;-53
2022/05/04 04:40:59;;;;;;;0.40;0.20;;;;;;;11.91;97.80;100231.09;4951262;28;20486;-53
2022/05/04 04:43:26;;;;;;;0.70;0.70;;;;;;;12.08;96.06;100231.41;4951907;29;20568;-53
2022/05/04 04:45:52;;;;;;;0.60;0.60;;;;;;;11.95;96.39;100235.41;4957792;28;20533;-53
2022/05/04 04:48:21;;;;;;;1.30;1.03;;;;;;;11.96;96.43;100234.50;4957382;28;20493;-53
2022/05/04 04:50:48;;;;;;;1.13;0.93;;;;;;;12.03;96.79;100246.66;4957456;28;20458;-53
2022/05/04 04:53:16;;;;;;;0.30;0.20;;;;;;;12.10;96.55;100244.66;4956779;28;20521;-53
2022/05/04 04:55:44;;;;;;;0.30;0.20;;;;;;;12.08;96.85;100239.38;4957115;28;20529;-53
2022/05/04 04:58:12;;;;;;;0.30;0.20;;;;;;;12.14;96.02;100243.63;4957361;28;20495;-53
2022/05/04 05:00:39;;;;;;;0.40;0.30;;;;;;;12.05;97.14;100244.81;4957522;28;20497;-53
2022/05/04 05:03:06;;;;;;;0.30;0.20;;;;;;;12.24;97.69;100247.69;4956999;28;20463;-53
2022/05/04 05:05:33;;;;;;;0.30;0.20;;;;;;;12.63;95.46;100250.69;4956889;28;20471;-53
2022/05/04 05:08:00;;;;;;;4.43;2.17;;;;;;;12.81;94.46;100257.13;4957130;28;20459;-53
2022/05/04 05:10:27;;;;;;;0.30;0.20;;;;;;;13.34;92.59;100254.19;4955768;29;20509;-53
2022/05/04 05:12:54;;;;;;;1.60;1.50;;;;;;;13.71;89.82;100255.34;4957033;28;20932;-54
2022/05/04 05:18:05;;;;;;;2.03;1.93;;;;;;;14.57;85.32;100260.50;4956921;29;20447;-53
2022/05/04 05:20:33;;;;;;;0.40;0.30;;;;;;;15.02;83.98;100257.50;4956928;28;20516;-54
2022/05/04 05:23:01;;;;;;;0.30;0.20;;;;;;;15.19;82.75;100251.31;4956608;28;20455;-54
2022/05/04 05:25:29;;;;;;;0.43;0.43;;;;;;;15.13;81.98;100247.16;4950312;28;21053;-54
2022/05/04 05:27:56;;;;;;;1.27;0.77;;;;;;;15.17;81.66;100245.19;4931678;29;20455;-53
2022/05/04 05:30:23;;;;;;;0.83;0.83;;;;;;;15.13;81.76;100249.81;4956880;28;20463;-54
2022/05/04 05:32:50;;;;;;;0.60;0.60;;;;;;;15.42;81.18;100248.41;4956783;28;20455;-53
2022/05/04 05:35:17;;;;;;;0.83;0.83;;;;;;;15.70;80.22;100245.25;4956599;28;20625;-54
2022/05/04 05:37:43;;;;;;;1.27;1.07;;;;;;;15.88;79.76;100247.00;4956699;28;20491;-54
2022/05/04 05:40:16;;;;;;;0.50;0.40;;;;;;;16.18;78.23;100243.69;4956852;28;20866;-53
2022/05/04 05:42:43;;;;;;;0.40;0.30;;;;;;;16.06;79.32;100239.84;4949415;28;20474;-53
2022/05/04 05:45:10;;;;;;;0.30;0.30;;;;;;;15.65;80.32;100245.50;4956545;28;20525;-54
2022/05/04 05:47:39;;;;;;;0.40;0.40;;;;;;;15.55;80.71;100240.63;4956476;28;20451;-54
2022/05/04 05:50:07;;;;;;;0.40;0.40;;;;;;;15.23;82.50;100240.41;4956454;28;20463;-54
2022/05/04 05:52:34;;;;;;;0.50;0.50;;;;;;;15.20;82.74;100240.53;4953531;28;20455;-53
2022/05/04 05:55:00;;;;;;;1.67;1.67;;;;;;;15.22;82.64;100243.16;4967374;28;20916;-53
2022/05/04 05:57:27;;;;;;;0.60;0.60;;;;;;;15.14;82.62;100239.97;4953498;28;20501;-54
2022/05/04 06:00:00;;;;;;;11.80;1.60;;;;;;;15.08;83.89;100244.69;4953266;28;20451;-54
2022/05/04 06:02:28;;;;;;;0.40;0.30;;;;;;;15.10;84.80;100247.31;4953198;28;20497;-53
2022/05/04 06:04:55;;;;;;;0.30;0.20;;;;;;;15.26;83.39;100242.94;4953435;28;20471;-54
2022/05/04 06:07:22;;;;;;;0.30;0.20;;;;;;;15.44;82.50;100235.81;4953469;28;20451;-54
2022/05/04 06:09:48;;;;;;;0.30;0.20;;;;;;;15.18;83.34;100242.44;4953126;28;20494;-54
2022/05/04 06:12:15;;;;;;;0.50;0.50;;;;;;;15.35;82.44;100239.81;4953286;28;20455;-54
2022/05/04 06:14:42;;;;;;;0.73;0.73;;;;;;;15.28;82.82;100238.38;4952971;28;20530;-54
2022/05/04 06:17:11;;;;;;;1.03;1.03;;;;;;;15.54;82.81;100244.25;4952945;28;20461;-54
2022/05/04 06:19:37;;;;;;;0.40;0.30;;;;;;;15.65;80.29;100241.94;4953017;28;20978;-53
2022/05/04 06:22:04;;;;;;;0.57;0.53;;;;;;;15.99;78.61;100243.75;4953225;28;20459;-54
2022/05/04 06:24:31;;;;;;;0.30;0.20;;;;;;;16.29;77.27;100241.28;4945756;28;20471;-54
2022/05/04 06:26:57;;;;;;;0.30;0.20;;;;;;;16.34;76.68;100241.06;4953116;28;20832;-53
2022/05/04 06:34:06;;;;;;;0.50;0.40;;;;;;;16.58;76.61;100251.38;4952869;28;20455;-54
2022/05/04 06:34:56;;;;;;;0.30;0.20;;;;;;;17.20;73.42;100246.16;4952995;28;20502;-54
2022/05/04 06:37:23;;;;;;;0.33;0.27;;;;;;;16.96;72.60;100250.22;4952773;29;20479;-54
2022/05/04 06:39:49;;;;;;;1.73;1.30;;;;;;;17.24;72.12;100254.91;4952842;28;20462;-54
2022/05/04 06:42:17;;;;;;;0.40;0.20;;;;;;;16.90;72.95;100251.44;4944861;28;20469;-54
2022/05/04 06:44:44;;;;;;;0.37;0.20;;;;;;;16.74;72.82;100259.47;4952747;28;20528;-53
2022/05/04 06:47:11;;;;;;;0.30;0.20;;;;;;;16.72;74.14;100260.47;4952765;28;20483;-54
2022/05/04 06:49:38;;;;;;;0.40;0.30;;;;;;;16.17;75.00;100264.28;4952751;28;20988;-54
2022/05/04 06:52:06;;;;;;;0.37;0.30;;;;;;;16.38;74.85;100261.41;4952544;28;20487;-54
2022/05/04 06:54:33;;;;;;;1.37;1.27;;;;;;;16.36;75.38;100268.69;4951410;28;20572;-54
2022/05/04 06:56:59;;;;;;;0.40;0.20;;;;;;;16.37;74.80;100267.72;4952374;28;20452;-54
2022/05/04 06:59:27;;;;;;;0.30;0.20;;;;;;;16.57;75.28;100262.16;4952719;28;20455;-54
2022/05/04 07:01:55;;;;;;;0.30;0.20;;;;;;;16.38;77.09;100272.13;4952659;28;20459;-53
2022/05/04 07:04:21;;;;;;;0.40;0.37;;;;;;;16.57;76.51;100272.88;4952150;28;20475;-53
2022/05/04 07:06:49;;;;;;;0.30;0.20;;;;;;;17.02;75.37;100274.94;4952411;28;20956;-53
2022/05/04 07:09:15;;;;;;;0.40;0.30;;;;;;;16.80;76.38;100272.56;4952372;28;20967;-53
2022/05/04 07:11:43;;;;;;;0.40;0.40;;;;;;;16.77;75.88;100267.34;4952316;28;20545;-53
2022/05/04 07:14:15;;;;;;;0.63;0.63;;;;;;;17.16;74.89;100268.81;4952356;28;20996;-53
2022/05/04 07:16:42;;;;;;;0.30;0.20;;;;;;;17.34;74.36;100281.19;4952338;28;20460;-53
2022/05/04 07:19:13;;;;;;;0.30;0.20;;;;;;;17.25;75.02;100276.31;4952305;28;20451;-53
2022/05/04 07:21:41;;;;;;;0.40;0.27;;;;;;;16.99;75.79;100269.72;4952124;28;20863;-53
2022/05/04 07:24:08;;;;;;;0.60;0.60;;;;;;;17.31;74.53;100272.44;4944480;28;20476;-53
2022/05/04 07:26:34;;;;;;;0.50;0.50;;;;;;;17.39;74.15;100273.72;4952158;28;20452;-53
2022/05/04 07:29:01;;;;;;;0.30;0.20;;;;;;;17.37;75.61;100275.63;4952172;28;20459;-53
2022/05/04 07:31:28;;;;;;;0.30;0.20;;;;;;;17.57;74.99;100281.69;4952104;28;20451;-53
2022/05/04 07:33:54;;;;;;;0.37;0.30;;;;;;;17.12;74.87;100280.66;4951750;28;21019;-53
2022/05/04 07:36:21;;;;;;;0.30;0.20;;;;;;;16.81;76.89;100276.97;4951921;29;21034;-53
2022/05/04 07:38:48;;;;;;;0.33;0.27;;;;;;;16.92;76.55;100276.38;4951879;28;20983;-53
2022/05/04 07:43:59;;;;;;;0.40;0.30;;;;;;;16.83;77.50;100280.44;4950549;28;20475;-53
2022/05/04 07:46:27;;;;;;;0.43;0.40;;;;;;;16.72;76.37;100279.28;4952065;28;20458;-53
2022/05/04 07:48:55;;;;;;;0.30;0.20;;;;;;;16.44;77.81;100279.84;4951491;28;20549;-53
2022/05/04 07:51:22;;;;;;;0.43;0.43;;;;;;;17.21;76.27;100281.97;4952051;28;20513;-53
2022/05/04 07:53:48;;;;;;;0.30;0.20;;;;;;;16.95;76.05;100280.72;4950908;28;20521;-53
2022/05/04 07:56:15;;;;;;;0.30;0.20;;;;;;;16.94;76.34;100277.16;4960051;23;20511;-50
2022/05/04 07:58:42;;;;;;;0.60;0.60;;;;;;;17.67;74.58;100288.25;4966603;28;20463;-50
2022/05/04 08:06:38;;;;;;;0.40;0.20;;;;;;;17.91;71.57;100286.88;4932326;29;20513;-50
2022/05/04 08:09:05;;;;;;;0.50;0.50;;;;;;;17.64;71.57;100288.44;4911546;29;20517;-51
2022/05/04 08:11:32;;;;;;;0.40;0.30;;;;;;;18.35;71.65;100294.97;4917200;29;20940;-51
2022/05/04 08:13:58;;;;;;;0.53;0.30;;;;;;;18.14;72.54;100293.59;4932153;29;20937;-50
2022/05/04 08:16:26;;;;;;;0.67;0.67;;;;;;;18.11;70.84;100288.38;4931399;29;20547;-51
2022/05/04 08:18:53;;;;;;;0.40;0.20;;;;;;;18.55;69.02;100290.22;4932239;29;20452;-51
2022/05/04 08:21:20;;;;;;;2.60;1.20;;;;;;;18.49;69.79;100291.44;4932207;29;20460;-50
2022/05/04 08:23:47;;;;;;;0.40;0.20;;;;;;;18.64;70.21;100282.47;4925623;29;20461;-51
2022/05/04 08:26:16;;;;;;;0.40;0.40;;;;;;;18.94;68.89;100281.50;4931439;28;21064;-50
2022/05/04 08:28:43;;;;;;;0.50;0.40;;;;;;;18.65;69.38;100283.34;4932036;29;20464;-51
2022/05/04 08:31:10;;;;;;;0.40;0.30;;;;;;;19.02;68.63;100279.16;4932182;29;20499;-50
2022/05/04 08:33:36;;;;;;;0.40;0.27;;;;;;;19.39;68.11;100287.59;4932004;29;20826;-50
2022/05/04 08:36:03;;;;;;;0.40;0.40;;;;;;;19.06;69.70;100287.94;4931785;29;20926;-50
2022/05/04 08:38:30;;;;;;;0.40;0.30;;;;;;;19.48;66.61;100281.59;4931634;29;20456;-51
2022/05/04 08:40:57;;;;;;;0.53;0.53;;;;;;;18.68;69.31;100288.53;4929340;28;20456;-51
2022/05/04 08:43:24;;;;;;;0.50;0.50;;;;;;;19.24;68.35;100276.84;4926133;28;20949;-51
2022/05/04 08:45:52;;;;;;;0.40;0.30;;;;;;;19.30;68.27;100280.09;4931802;29;20468;-51
2022/05/04 08:48:23;;;;;;;0.50;0.40;;;;;;;18.99;68.62;100292.84;4931989;29;20539;-51
2022/05/04 08:50:50;;;;;;;1.23;1.23;;;;;;;19.07;68.71;100286.97;4931884;29;20452;-51
2022/05/04 08:53:17;;;;;;;0.50;0.30;;;;;;;19.24;69.55;100275.97;4931277;29;20941;-51
2022/05/04 08:55:44;;;;;;;0.40;0.20;;;;;;;19.42;68.03;100277.47;4931482;29;20985;-51
2022/05/04 08:58:11;;;;;;;0.57;0.50;;;;;;;19.11;68.43;100286.69;4931794;29;20834;-51
2022/05/04 09:00:38;;;;;;;0.40;0.20;;;;;;;20.11;66.06;100281.84;4931849;29;20460;-51
2022/05/04 09:03:08;;;;;;;0.60;0.30;;;;;;;19.62;66.18;100281.59;4931659;29;20513;-51
2022/05/04 09:05:40;;;;;;;1.17;0.67;;;;;;;19.01;68.27;100276.56;4931603;29;20505;-51
2022/05/04 09:08:09;;;;;;;0.40;0.20;;;;;;;19.55;66.84;100272.16;4931488;29;20459;-51
2022/05/04 09:10:38;;;;;;;0.50;0.40;;;;;;;19.41;67.72;100272.19;4931798;29;20468;-51
2022/05/04 09:13:05;;;;;;;0.40;0.20;;;;;;;19.59;67.79;100265.59;4931555;29;20452;-51
2022/05/04 09:15:40;;;;;;;0.50;0.40;;;;;;;19.43;67.48;100265.72;4931628;29;20491;-51
2022/05/04 09:18:15;;;;;;;0.43;0.27;;;;;;;19.71;66.34;100263.91;4931563;28;21028;-51
2022/05/04 09:20:48;;;;;;;0.40;0.30;;;;;;;19.57;67.25;100267.53;4931311;29;21035;-51
2022/05/04 09:23:22;;;;;;;0.50;0.50;;;;;;;19.67;66.37;100263.28;4929321;29;20502;-51
2022/05/04 09:25:57;;;;;;;0.80;0.80;;;;;;;19.19;66.28;100270.91;4926248;29;21030;-51
2022/05/04 09:28:24;;;;;;;0.70;0.70;;;;;;;19.28;66.62;100255.94;4932668;29;20994;-51
2022/05/04 09:30:56;;;;;;;0.40;0.20;;;;;;;19.55;65.50;100271.31;4934387;29;20464;-51
2022/05/04 09:33:28;;;;;;;0.60;0.60;;;;;;;19.74;65.21;100263.75;4934915;29;20498;-51
2022/05/04 09:35:56;;;;;;;0.40;0.20;;;;;;;19.37;66.20;100267.97;4934560;29;20496;-52
2022/05/04 09:46:50;;;;;;;0.50;0.43;;;;;;;20.03;63.17;100273.44;4934258;29;20475;-51
2022/05/04 09:49:17;;;;;;;2.17;0.80;;;;;;;19.73;63.80;100270.06;4934566;29;20502;-51
2022/05/04 09:51:51;;;;;;;0.40;0.30;;;;;;;20.11;62.05;100272.88;4934527;29;20813;-51
2022/05/04 09:54:21;;;;;;;0.40;0.30;;;;;;;20.18;62.93;100262.56;4934893;29;20444;-51
2022/05/04 09:56:59;;;;;;;0.73;0.73;;;;;;;20.43;62.79;100254.50;4934075;29;20483;-51
2022/05/04 09:59:31;;;;;;;0.50;0.40;;;;;;;20.43;62.11;100256.34;4935044;29;20460;-51
2022/05/04 10:02:00;;;;;;;2.60;0.53;;;;;;;20.83;60.89;100252.56;4910404;29;20448;-51
2022/05/04 10:04:27;;;;;;;2.37;2.17;;;;;;;21.07;60.05;100251.75;4933793;29;20951;-51
2022/05/04 10:07:03;;;;;;;0.40;0.30;;;;;;;21.06;59.71;100258.13;4933934;29;20948;-52
2022/05/04 10:09:30;;;;;;;0.40;0.20;;;;;;;20.84;59.54;100262.41;4934098;29;20456;-51
2022/05/04 10:11:59;;;;;;;0.63;0.60;;;;;;;21.55;58.39;100259.00;4934209;29;20523;-51
2022/05/04 10:14:27;;;;;;;0.90;0.90;;;;;;;21.77;57.57;100254.66;4934144;29;20471;-51
2022/05/04 10:17:14;;;;;;;0.53;0.53;;;;;;;20.73;59.32;100256.03;4934858;29;20538;-51
2022/05/04 10:20:07;;;;;;;0.60;0.60;;;;;;;21.15;59.66;100250.22;4934749;28;20460;-51
2022/05/04 10:22:40;;;;;;;0.50;0.50;;;;;;;20.90;60.21;100245.72;4933629;29;20945;-51
2022/05/04 10:25:08;;;;;;;0.40;0.20;;;;;;;21.50;58.52;100244.06;4927468;28;20476;-51
2022/05/04 10:27:43;;;;;;;0.40;0.20;;;;;;;20.11;61.48;100246.75;4933975;29;20522;-51
2022/05/04 10:33:01;;;;;;;1.00;1.00;;;;;;;20.10;63.53;100236.06;4911322;29;20486;-51
2022/05/04 10:35:27;;;;;;;0.50;0.40;;;;;;;20.55;61.81;100237.41;4934018;29;20538;-52
2022/05/04 10:38:04;;;;;;;0.50;0.50;;;;;;;20.28;60.46;100250.13;4934539;29;20965;-51
2022/05/04 10:40:32;;;;;;;0.40;0.30;;;;;;;20.28;60.67;100242.03;4932577;28;20471;-51
2022/05/04 10:43:02;;;;;;;0.40;0.27;;;;;;;20.45;60.54;100238.19;4926995;29;20464;-51
2022/05/04 10:45:34;;;;;;;0.60;0.60;;;;;;;20.43;60.53;100234.75;4933909;28;20468;-51
2022/05/04 10:48:19;;;;;;;0.87;0.70;;;;;;;20.21;60.35;100225.41;4934148;29;20445;-51
2022/05/04 10:50:47;;;;;;;0.63;0.63;;;;;;;20.64;60.02;100217.00;4910828;29;20532;-51
2022/05/04 10:53:23;;;;;;;0.50;0.43;;;;;;;21.36;58.87;100220.75;4932462;29;20805;-51
2022/05/04 10:56:15;;;;;;;0.40;0.30;;;;;;;22.02;57.51;100224.72;4933382;29;20504;-51
2022/05/04 10:58:51;;;;;;;0.40;0.20;;;;;;;21.54;53.89;100222.09;4928834;29;20464;-51
2022/05/04 11:01:31;;;;;;;0.50;0.40;;;;;;;21.47;55.72;100212.69;4933355;29;20819;-51
2022/05/04 11:04:05;;;;;;;0.40;0.40;;;;;;;21.00;53.96;100203.53;4933254;29;20574;-52
2022/05/04 11:06:37;;;;;;;0.40;0.20;;;;;;;21.31;54.60;100216.66;4933510;29;20817;-51
2022/05/04 11:09:15;;;;;;;0.50;0.40;;;;;;;21.29;54.63;100197.84;4933045;29;20452;-51
2022/05/04 11:11:45;;;;;;;1.10;1.10;;;;;;;22.22;54.26;100203.41;4933304;29;21003;-51
2022/05/04 11:14:14;;;;;;;0.70;0.70;;;;;;;22.50;53.13;100199.41;4932961;29;20456;-51
2022/05/04 11:16:42;;;;;;;0.43;0.27;;;;;;;21.72;54.35;100191.91;4933392;29;20492;-51
2022/05/04 11:19:11;;;;;;;2.67;0.63;;;;;;;21.54;55.47;100192.34;4933048;29;20820;-51
2022/05/04 11:21:38;;;;;;;0.70;0.70;;;;;;;21.91;51.81;100189.50;4933247;29;20988;-51
2022/05/04 11:24:07;;;;;;;2.20;2.10;;;;;;;21.70;51.19;100193.88;4926245;28;20905;-52
2022/05/04 11:26:39;;;;;;;0.40;0.30;;;;;;;21.70;52.43;100188.47;4932948;28;20488;-51
2022/05/04 11:29:08;;;;;;;0.40;0.30;;;;;;;22.18;53.32;100186.53;4933232;29;20460;-51
2022/05/04 11:31:35;;;;;;;0.43;0.30;;;;;;;22.00;54.20;100180.69;4932640;29;20448;-51
2022/05/04 11:34:03;;;;;;;0.40;0.20;;;;;;;21.56;54.87;100189.50;4932842;28;20452;-51
2022/05/04 11:36:29;;;;;;;0.40;0.30;;;;;;;21.36;56.05;100182.88;4932863;28;20492;-51
2022/05/04 11:38:56;;;;;;;0.57;0.43;;;;;;;21.35;54.81;100181.16;4932962;29;20460;-51
2022/05/04 11:41:22;;;;;;;0.40;0.30;;;;;;;21.84;54.95;100175.59;4928223;29;20877;-52
2022/05/04 11:43:50;;;;;;;1.47;1.33;;;;;;;21.64;54.69;100172.69;4930503;28;20448;-51
2022/05/04 11:46:16;;;;;;;0.50;0.50;;;;;;;21.72;54.79;100167.56;4932571;28;20968;-51
2022/05/04 11:48:45;;;;;;;0.50;0.33;;;;;;;22.22;55.49;100160.09;4932466;29;20495;-52
2022/05/04 11:51:15;;;;;;;1.23;1.13;;;;;;;23.02;51.56;100155.38;4931784;29;20460;-51
2022/05/04 11:53:44;;;;;;;0.60;0.60;;;;;;;22.99;51.91;100161.94;4931661;29;20448;-51
2022/05/04 11:56:11;;;;;;;0.40;0.27;;;;;;;23.50;51.66;100144.16;4932389;28;20500;-51
2022/05/04 11:58:38;;;;;;;0.57;0.57;;;;;;;23.45;50.77;100144.56;4932401;29;20487;-51
2022/05/04 12:01:06;;;;;;;0.40;0.30;;;;;;;23.55;49.98;100144.59;4932354;29;20510;-51
2022/05/04 12:03:38;;;;;;;0.40;0.20;;;;;;;23.51;51.05;100141.31;4932202;29;20544;-51
2022/05/04 12:06:09;;;;;;;1.50;0.87;;;;;;;22.73;53.51;100138.75;4932516;29;20468;-52
2022/05/04 12:08:38;;;;;;;0.47;0.30;;;;;;;21.96;54.21;100130.47;4932700;29;20448;-51